sensor_id;sensor_type;location;lat;lon;timestamp;P1;durP1;ratioP1;P2;durP2;ratioP2
69596;SDS011;70000;51.176;-115.568;2023-08-06T00:02:11;20.00;;;16.80;;
69596;SDS011;70000;51.176;-115.568;2023-08-06T00:04:57;36.20;;;19.60;;
69596;SDS011;70000;51.176;-115.568;2023-08-06T00:07:27;22.30;;;17.60;;
69596;SDS011;70000;51.176;-115.568;2023-08-06T00:09:58;28.50;;;19.10;;
69596;SDS011;70000;51.176;-115.568;2023-08-06T00:12:28;32.30;;;18.70;;
69596;SDS011;70000;51.176;-115.568;2023-08-06T00:14:57;26.60;;;18.20;;
69596;SDS011;70000;51.176;-115.568;2023-08-06T00:17:27;26.80;;;17.60;;
69596;SDS011;70000;51.176;-115.568;2023-08-06T00:19:56;24.30;;;17.40;;
69596;SDS011;70000;51.176;-115.568;2023-08-06T00:22:26;24.00;;;17.70;;
69596;SDS011;70000;51.176;-115.568;2023-08-06T00:24:56;30.70;;;19.40;;
69596;SDS011;70000;51.176;-115.568;2023-08-06T00:27:26;25.40;;;18.40;;
69596;SDS011;70000;51.176;-115.568;2023-08-06T00:29:55;23.90;;;18.00;;
69596;SDS011;70000;51.176;-115.568;2023-08-06T00:32:25;21.80;;;16.90;;
69596;SDS011;70000;51.176;-115.568;2023-08-06T00:34:55;24.70;;;18.20;;
69596;SDS011;70000;51.176;-115.568;2023-08-06T00:37:24;20.80;;;17.40;;
69596;SDS011;70000;51.176;-115.568;2023-08-06T00:39:54;21.80;;;17.70;;
69596;SDS011;70000;51.176;-115.568;2023-08-06T00:42:23;21.90;;;17.00;;
69596;SDS011;70000;51.176;-115.568;2023-08-06T00:44:53;21.40;;;18.10;;
69596;SDS011;70000;51.176;-115.568;2023-08-06T00:47:24;20.40;;;17.00;;
69596;SDS011;70000;51.176;-115.568;2023-08-06T00:49:54;26.00;;;18.60;;
69596;SDS011;70000;51.176;-115.568;2023-08-06T00:52:23;22.80;;;18.80;;
69596;SDS011;70000;51.176;-115.568;2023-08-06T00:54:53;22.60;;;17.90;;
69596;SDS011;70000;51.176;-115.568;2023-08-06T00:57:24;18.90;;;15.60;;
69596;SDS011;70000;51.176;-115.568;2023-08-06T00:59:55;21.80;;;17.10;;
69596;SDS011;70000;51.176;-115.568;2023-08-06T01:02:25;20.20;;;15.80;;
69596;SDS011;70000;51.176;-115.568;2023-08-06T01:04:57;20.90;;;18.00;;
69596;SDS011;70000;51.176;-115.568;2023-08-06T01:07:53;20.70;;;17.20;;
69596;SDS011;70000;51.176;-115.568;2023-08-06T01:14:13;20.70;;;16.40;;
69596;SDS011;70000;51.176;-115.568;2023-08-06T01:16:58;20.30;;;17.60;;
69596;SDS011;70000;51.176;-115.568;2023-08-06T01:19:36;18.70;;;16.10;;
69596;SDS011;70000;51.176;-115.568;2023-08-06T01:22:45;20.20;;;16.60;;
69596;SDS011;70000;51.176;-115.568;2023-08-06T01:25:15;20.00;;;16.30;;
69596;SDS011;70000;51.176;-115.568;2023-08-06T01:27:53;20.40;;;16.70;;
69596;SDS011;70000;51.176;-115.568;2023-08-06T01:30:31;20.20;;;16.50;;
69596;SDS011;70000;51.176;-115.568;2023-08-06T01:33:05;21.20;;;16.20;;
69596;SDS011;70000;51.176;-115.568;2023-08-06T01:35:38;21.60;;;16.10;;
69596;SDS011;70000;51.176;-115.568;2023-08-06T01:38:08;22.00;;;17.60;;
69596;SDS011;70000;51.176;-115.568;2023-08-06T01:40:37;20.10;;;15.80;;
69596;SDS011;70000;51.176;-115.568;2023-08-06T01:43:06;27.10;;;21.90;;
69596;SDS011;70000;51.176;-115.568;2023-08-06T01:45:35;19.20;;;16.20;;
69596;SDS011;70000;51.176;-115.568;2023-08-06T01:48:04;25.30;;;22.20;;
69596;SDS011;70000;51.176;-115.568;2023-08-06T01:50:33;21.40;;;16.70;;
69596;SDS011;70000;51.176;-115.568;2023-08-06T01:53:02;21.10;;;17.00;;
69596;SDS011;70000;51.176;-115.568;2023-08-06T01:55:34;21.10;;;16.20;;
69596;SDS011;70000;51.176;-115.568;2023-08-06T01:58:02;19.90;;;15.20;;
69596;SDS011;70000;51.176;-115.568;2023-08-06T02:00:31;19.40;;;15.70;;
69596;SDS011;70000;51.176;-115.568;2023-08-06T02:03:00;18.50;;;15.30;;
69596;SDS011;70000;51.176;-115.568;2023-08-06T02:05:29;20.00;;;14.70;;
69596;SDS011;70000;51.176;-115.568;2023-08-06T02:07:58;19.60;;;15.80;;
69596;SDS011;70000;51.176;-115.568;2023-08-06T02:10:27;18.70;;;14.30;;
69596;SDS011;70000;51.176;-115.568;2023-08-06T02:12:56;19.50;;;14.30;;
69596;SDS011;70000;51.176;-115.568;2023-08-06T02:15:25;19.00;;;15.20;;
69596;SDS011;70000;51.176;-115.568;2023-08-06T02:17:54;18.90;;;14.50;;
69596;SDS011;70000;51.176;-115.568;2023-08-06T02:20:23;21.70;;;16.30;;
69596;SDS011;70000;51.176;-115.568;2023-08-06T02:22:52;21.10;;;16.50;;
69596;SDS011;70000;51.176;-115.568;2023-08-06T02:25:22;21.00;;;15.70;;
69596;SDS011;70000;51.176;-115.568;2023-08-06T02:27:51;19.40;;;15.80;;
69596;SDS011;70000;51.176;-115.568;2023-08-06T02:30:21;20.90;;;16.20;;
69596;SDS011;70000;51.176;-115.568;2023-08-06T02:32:50;18.70;;;15.10;;
69596;SDS011;70000;51.176;-115.568;2023-08-06T02:35:20;19.80;;;15.10;;
69596;SDS011;70000;51.176;-115.568;2023-08-06T02:37:49;18.30;;;14.60;;
69596;SDS011;70000;51.176;-115.568;2023-08-06T02:40:23;18.70;;;14.60;;
69596;SDS011;70000;51.176;-115.568;2023-08-06T02:42:52;19.60;;;14.00;;
69596;SDS011;70000;51.176;-115.568;2023-08-06T02:45:22;20.10;;;14.60;;
69596;SDS011;70000;51.176;-115.568;2023-08-06T02:47:51;19.60;;;14.20;;
69596;SDS011;70000;51.176;-115.568;2023-08-06T02:50:19;20.40;;;13.80;;
69596;SDS011;70000;51.176;-115.568;2023-08-06T02:52:49;17.50;;;13.50;;
69596;SDS011;70000;51.176;-115.568;2023-08-06T02:55:18;17.60;;;12.80;;
69596;SDS011;70000;51.176;-115.568;2023-08-06T02:57:49;18.60;;;13.60;;
69596;SDS011;70000;51.176;-115.568;2023-08-06T03:00:18;18.10;;;13.60;;
69596;SDS011;70000;51.176;-115.568;2023-08-06T03:06:13;18.00;;;13.00;;
69596;SDS011;70000;51.176;-115.568;2023-08-06T03:08:43;18.10;;;12.80;;
69596;SDS011;70000;51.176;-115.568;2023-08-06T03:11:12;16.90;;;12.20;;
69596;SDS011;70000;51.176;-115.568;2023-08-06T03:13:44;16.90;;;11.80;;
69596;SDS011;70000;51.176;-115.568;2023-08-06T03:16:13;18.80;;;13.50;;
69596;SDS011;70000;51.176;-115.568;2023-08-06T03:18:42;16.30;;;12.50;;
69596;SDS011;70000;51.176;-115.568;2023-08-06T03:21:12;16.60;;;12.70;;
69596;SDS011;70000;51.176;-115.568;2023-08-06T03:23:41;18.10;;;11.80;;
69596;SDS011;70000;51.176;-115.568;2023-08-06T03:26:10;18.40;;;12.10;;
69596;SDS011;70000;51.176;-115.568;2023-08-06T03:28:39;19.50;;;11.70;;
69596;SDS011;70000;51.176;-115.568;2023-08-06T03:31:07;16.30;;;11.90;;
69596;SDS011;70000;51.176;-115.568;2023-08-06T03:33:37;18.60;;;12.60;;
69596;SDS011;70000;51.176;-115.568;2023-08-06T03:36:06;16.90;;;12.30;;
69596;SDS011;70000;51.176;-115.568;2023-08-06T03:38:35;18.10;;;12.10;;
69596;SDS011;70000;51.176;-115.568;2023-08-06T03:41:05;16.80;;;12.90;;
69596;SDS011;70000;51.176;-115.568;2023-08-06T03:43:37;16.90;;;11.80;;
69596;SDS011;70000;51.176;-115.568;2023-08-06T03:46:06;15.30;;;11.70;;
69596;SDS011;70000;51.176;-115.568;2023-08-06T03:48:36;15.30;;;10.80;;
69596;SDS011;70000;51.176;-115.568;2023-08-06T03:53:58;15.60;;;11.50;;
69596;SDS011;70000;51.176;-115.568;2023-08-06T03:56:27;15.40;;;10.70;;
69596;SDS011;70000;51.176;-115.568;2023-08-06T03:59:22;15.30;;;10.70;;
69596;SDS011;70000;51.176;-115.568;2023-08-06T04:01:51;14.10;;;10.20;;
69596;SDS011;70000;51.176;-115.568;2023-08-06T04:04:21;11.90;;;8.50;;
69596;SDS011;70000;51.176;-115.568;2023-08-06T04:06:54;12.40;;;8.30;;
69596;SDS011;70000;51.176;-115.568;2023-08-06T04:09:24;12.10;;;9.10;;
69596;SDS011;70000;51.176;-115.568;2023-08-06T04:11:53;12.20;;;8.70;;
69596;SDS011;70000;51.176;-115.568;2023-08-06T04:14:41;13.00;;;9.20;;
69596;SDS011;70000;51.176;-115.568;2023-08-06T04:17:11;13.20;;;9.40;;
69596;SDS011;70000;51.176;-115.568;2023-08-06T04:19:41;13.00;;;9.10;;
69596;SDS011;70000;51.176;-115.568;2023-08-06T04:22:14;13.70;;;9.10;;
69596;SDS011;70000;51.176;-115.568;2023-08-06T04:24:44;14.80;;;10.80;;
69596;SDS011;70000;51.176;-115.568;2023-08-06T04:27:19;16.40;;;12.30;;
69596;SDS011;70000;51.176;-115.568;2023-08-06T04:29:48;15.90;;;11.60;;
69596;SDS011;70000;51.176;-115.568;2023-08-06T04:32:18;16.30;;;10.70;;
69596;SDS011;70000;51.176;-115.568;2023-08-06T04:35:05;18.00;;;12.30;;
69596;SDS011;70000;51.176;-115.568;2023-08-06T04:37:35;16.40;;;11.60;;
69596;SDS011;70000;51.176;-115.568;2023-08-06T04:40:05;17.60;;;12.00;;
69596;SDS011;70000;51.176;-115.568;2023-08-06T04:42:36;16.90;;;12.20;;
69596;SDS011;70000;51.176;-115.568;2023-08-06T04:45:06;16.40;;;11.70;;
69596;SDS011;70000;51.176;-115.568;2023-08-06T04:47:36;16.20;;;11.30;;
69596;SDS011;70000;51.176;-115.568;2023-08-06T04:53:36;15.80;;;11.60;;
69596;SDS011;70000;51.176;-115.568;2023-08-06T04:56:06;17.30;;;11.00;;
69596;SDS011;70000;51.176;-115.568;2023-08-06T04:58:37;18.20;;;11.40;;
69596;SDS011;70000;51.176;-115.568;2023-08-06T05:01:09;17.20;;;11.60;;
69596;SDS011;70000;51.176;-115.568;2023-08-06T05:03:38;14.90;;;10.50;;
69596;SDS011;70000;51.176;-115.568;2023-08-06T05:06:10;16.10;;;10.40;;
69596;SDS011;70000;51.176;-115.568;2023-08-06T05:08:43;16.10;;;10.30;;
69596;SDS011;70000;51.176;-115.568;2023-08-06T05:11:15;15.50;;;10.90;;
69596;SDS011;70000;51.176;-115.568;2023-08-06T05:13:45;16.90;;;11.60;;
69596;SDS011;70000;51.176;-115.568;2023-08-06T05:16:14;15.70;;;11.30;;
69596;SDS011;70000;51.176;-115.568;2023-08-06T05:18:43;18.10;;;11.10;;
69596;SDS011;70000;51.176;-115.568;2023-08-06T05:21:12;15.20;;;10.60;;
69596;SDS011;70000;51.176;-115.568;2023-08-06T05:23:40;14.00;;;9.90;;
69596;SDS011;70000;51.176;-115.568;2023-08-06T05:26:29;14.70;;;10.30;;
69596;SDS011;70000;51.176;-115.568;2023-08-06T05:29:07;14.70;;;9.90;;
69596;SDS011;70000;51.176;-115.568;2023-08-06T05:31:46;14.50;;;10.40;;
69596;SDS011;70000;51.176;-115.568;2023-08-06T05:34:19;15.70;;;10.70;;
69596;SDS011;70000;51.176;-115.568;2023-08-06T05:37:00;15.90;;;10.40;;
69596;SDS011;70000;51.176;-115.568;2023-08-06T05:39:29;15.30;;;10.10;;
69596;SDS011;70000;51.176;-115.568;2023-08-06T05:41:59;17.00;;;11.40;;
69596;SDS011;70000;51.176;-115.568;2023-08-06T05:47:10;15.60;;;10.80;;
69596;SDS011;70000;51.176;-115.568;2023-08-06T06:00:02;16.50;;;11.00;;
69596;SDS011;70000;51.176;-115.568;2023-08-06T06:02:35;15.30;;;10.90;;
69596;SDS011;70000;51.176;-115.568;2023-08-06T06:05:05;16.50;;;11.60;;
69596;SDS011;70000;51.176;-115.568;2023-08-06T06:14:53;16.30;;;11.50;;
69596;SDS011;70000;51.176;-115.568;2023-08-06T06:17:26;15.20;;;10.00;;
69596;SDS011;70000;51.176;-115.568;2023-08-06T06:19:59;14.60;;;9.30;;
69596;SDS011;70000;51.176;-115.568;2023-08-06T06:23:14;13.40;;;9.10;;
69596;SDS011;70000;51.176;-115.568;2023-08-06T06:25:47;14.10;;;9.70;;
69596;SDS011;70000;51.176;-115.568;2023-08-06T06:28:19;14.50;;;9.30;;
69596;SDS011;70000;51.176;-115.568;2023-08-06T06:30:52;14.70;;;9.70;;
69596;SDS011;70000;51.176;-115.568;2023-08-06T06:33:22;17.80;;;9.30;;
69596;SDS011;70000;51.176;-115.568;2023-08-06T06:35:51;15.30;;;10.20;;
69596;SDS011;70000;51.176;-115.568;2023-08-06T06:38:25;14.50;;;9.40;;
69596;SDS011;70000;51.176;-115.568;2023-08-06T06:40:56;14.50;;;9.10;;
69596;SDS011;70000;51.176;-115.568;2023-08-06T06:43:29;14.30;;;9.40;;
69596;SDS011;70000;51.176;-115.568;2023-08-06T06:45:59;13.70;;;8.90;;
69596;SDS011;70000;51.176;-115.568;2023-08-06T06:48:32;13.80;;;8.80;;
69596;SDS011;70000;51.176;-115.568;2023-08-06T06:51:04;13.70;;;8.90;;
69596;SDS011;70000;51.176;-115.568;2023-08-06T06:53:36;14.40;;;9.40;;
69596;SDS011;70000;51.176;-115.568;2023-08-06T06:56:12;13.20;;;9.10;;
69596;SDS011;70000;51.176;-115.568;2023-08-06T06:58:42;14.30;;;9.80;;
69596;SDS011;70000;51.176;-115.568;2023-08-06T07:01:12;13.90;;;9.10;;
69596;SDS011;70000;51.176;-115.568;2023-08-06T07:03:42;13.60;;;9.00;;
69596;SDS011;70000;51.176;-115.568;2023-08-06T07:13:25;13.70;;;9.20;;
69596;SDS011;70000;51.176;-115.568;2023-08-06T07:15:58;13.80;;;9.40;;
69596;SDS011;70000;51.176;-115.568;2023-08-06T07:18:28;15.00;;;8.70;;
69596;SDS011;70000;51.176;-115.568;2023-08-06T07:21:00;14.50;;;9.50;;
69596;SDS011;70000;51.176;-115.568;2023-08-06T07:23:29;13.70;;;9.10;;
69596;SDS011;70000;51.176;-115.568;2023-08-06T07:25:59;13.40;;;8.90;;
69596;SDS011;70000;51.176;-115.568;2023-08-06T07:28:31;14.30;;;9.40;;
69596;SDS011;70000;51.176;-115.568;2023-08-06T07:31:04;14.50;;;9.20;;
69596;SDS011;70000;51.176;-115.568;2023-08-06T07:33:36;13.30;;;8.30;;
69596;SDS011;70000;51.176;-115.568;2023-08-06T07:36:13;14.20;;;9.60;;
69596;SDS011;70000;51.176;-115.568;2023-08-06T07:38:54;13.30;;;8.80;;
69596;SDS011;70000;51.176;-115.568;2023-08-06T07:41:26;14.30;;;9.20;;
69596;SDS011;70000;51.176;-115.568;2023-08-06T07:43:56;14.00;;;9.10;;
69596;SDS011;70000;51.176;-115.568;2023-08-06T07:46:25;14.50;;;8.90;;
69596;SDS011;70000;51.176;-115.568;2023-08-06T07:48:55;13.00;;;8.20;;
69596;SDS011;70000;51.176;-115.568;2023-08-06T07:51:29;13.30;;;8.50;;
69596;SDS011;70000;51.176;-115.568;2023-08-06T07:53:58;13.10;;;8.20;;
69596;SDS011;70000;51.176;-115.568;2023-08-06T07:56:28;13.30;;;8.90;;
69596;SDS011;70000;51.176;-115.568;2023-08-06T07:58:57;13.30;;;9.30;;
69596;SDS011;70000;51.176;-115.568;2023-08-06T08:01:27;14.20;;;9.50;;
69596;SDS011;70000;51.176;-115.568;2023-08-06T08:03:56;14.30;;;9.50;;
69596;SDS011;70000;51.176;-115.568;2023-08-06T08:13:38;13.00;;;8.50;;
69596;SDS011;70000;51.176;-115.568;2023-08-06T08:16:08;13.20;;;9.00;;
69596;SDS011;70000;51.176;-115.568;2023-08-06T08:18:40;13.50;;;8.60;;
69596;SDS011;70000;51.176;-115.568;2023-08-06T08:21:10;14.10;;;9.10;;
69596;SDS011;70000;51.176;-115.568;2023-08-06T08:23:39;13.40;;;9.30;;
69596;SDS011;70000;51.176;-115.568;2023-08-06T08:26:10;12.80;;;8.20;;
69596;SDS011;70000;51.176;-115.568;2023-08-06T08:28:40;12.80;;;8.50;;
69596;SDS011;70000;51.176;-115.568;2023-08-06T08:31:11;13.30;;;9.10;;
69596;SDS011;70000;51.176;-115.568;2023-08-06T08:33:40;14.30;;;9.20;;
69596;SDS011;70000;51.176;-115.568;2023-08-06T08:36:12;13.60;;;9.00;;
69596;SDS011;70000;51.176;-115.568;2023-08-06T08:38:42;12.70;;;8.00;;
69596;SDS011;70000;51.176;-115.568;2023-08-06T08:41:16;14.10;;;9.00;;
69596;SDS011;70000;51.176;-115.568;2023-08-06T08:43:48;13.00;;;8.60;;
69596;SDS011;70000;51.176;-115.568;2023-08-06T08:46:20;13.70;;;8.80;;
69596;SDS011;70000;51.176;-115.568;2023-08-06T08:48:50;14.40;;;8.80;;
69596;SDS011;70000;51.176;-115.568;2023-08-06T08:51:22;13.30;;;8.60;;
69596;SDS011;70000;51.176;-115.568;2023-08-06T08:53:53;15.00;;;8.80;;
69596;SDS011;70000;51.176;-115.568;2023-08-06T08:56:29;13.10;;;8.40;;
69596;SDS011;70000;51.176;-115.568;2023-08-06T08:58:59;14.60;;;9.10;;
69596;SDS011;70000;51.176;-115.568;2023-08-06T09:01:30;13.00;;;8.90;;
69596;SDS011;70000;51.176;-115.568;2023-08-06T09:04:01;13.90;;;8.90;;
69596;SDS011;70000;51.176;-115.568;2023-08-06T09:06:37;14.30;;;8.90;;
69596;SDS011;70000;51.176;-115.568;2023-08-06T09:09:12;13.40;;;8.90;;
69596;SDS011;70000;51.176;-115.568;2023-08-06T09:11:51;12.90;;;8.50;;
69596;SDS011;70000;51.176;-115.568;2023-08-06T09:14:23;13.60;;;8.40;;
69596;SDS011;70000;51.176;-115.568;2023-08-06T09:16:53;14.30;;;9.00;;
69596;SDS011;70000;51.176;-115.568;2023-08-06T09:19:26;14.10;;;8.80;;
69596;SDS011;70000;51.176;-115.568;2023-08-06T09:21:57;12.90;;;8.70;;
69596;SDS011;70000;51.176;-115.568;2023-08-06T09:24:27;13.30;;;8.90;;
69596;SDS011;70000;51.176;-115.568;2023-08-06T09:27:02;13.90;;;8.60;;
69596;SDS011;70000;51.176;-115.568;2023-08-06T09:29:31;13.60;;;8.90;;
69596;SDS011;70000;51.176;-115.568;2023-08-06T09:32:06;13.00;;;8.60;;
69596;SDS011;70000;51.176;-115.568;2023-08-06T09:34:39;13.70;;;8.40;;
69596;SDS011;70000;51.176;-115.568;2023-08-06T09:37:12;13.70;;;9.00;;
69596;SDS011;70000;51.176;-115.568;2023-08-06T09:39:44;13.20;;;8.10;;
69596;SDS011;70000;51.176;-115.568;2023-08-06T09:42:15;14.10;;;9.00;;
69596;SDS011;70000;51.176;-115.568;2023-08-06T09:44:44;13.50;;;9.60;;
69596;SDS011;70000;51.176;-115.568;2023-08-06T09:47:16;15.40;;;9.70;;
69596;SDS011;70000;51.176;-115.568;2023-08-06T09:49:50;14.60;;;9.60;;
69596;SDS011;70000;51.176;-115.568;2023-08-06T09:52:20;13.50;;;9.40;;
69596;SDS011;70000;51.176;-115.568;2023-08-06T09:54:51;13.60;;;9.70;;
69596;SDS011;70000;51.176;-115.568;2023-08-06T09:57:21;15.50;;;9.90;;
69596;SDS011;70000;51.176;-115.568;2023-08-06T09:59:52;14.40;;;8.80;;
69596;SDS011;70000;51.176;-115.568;2023-08-06T10:02:26;13.50;;;9.10;;
69596;SDS011;70000;51.176;-115.568;2023-08-06T10:04:57;15.50;;;9.50;;
69596;SDS011;70000;51.176;-115.568;2023-08-06T10:07:37;14.30;;;9.20;;
69596;SDS011;70000;51.176;-115.568;2023-08-06T10:10:08;13.80;;;9.40;;
69596;SDS011;70000;51.176;-115.568;2023-08-06T10:12:45;14.80;;;9.70;;
69596;SDS011;70000;51.176;-115.568;2023-08-06T10:15:24;14.90;;;9.60;;
69596;SDS011;70000;51.176;-115.568;2023-08-06T10:17:56;15.00;;;9.60;;
69596;SDS011;70000;51.176;-115.568;2023-08-06T10:20:33;14.90;;;9.00;;
69596;SDS011;70000;51.176;-115.568;2023-08-06T10:23:06;15.40;;;9.40;;
69596;SDS011;70000;51.176;-115.568;2023-08-06T10:25:40;16.70;;;9.60;;
69596;SDS011;70000;51.176;-115.568;2023-08-06T10:28:13;14.20;;;9.20;;
69596;SDS011;70000;51.176;-115.568;2023-08-06T10:30:45;14.40;;;9.30;;
69596;SDS011;70000;51.176;-115.568;2023-08-06T10:33:20;14.00;;;8.70;;
69596;SDS011;70000;51.176;-115.568;2023-08-06T10:35:50;14.00;;;8.50;;
69596;SDS011;70000;51.176;-115.568;2023-08-06T10:38:29;14.40;;;9.10;;
69596;SDS011;70000;51.176;-115.568;2023-08-06T10:41:04;14.10;;;9.10;;
69596;SDS011;70000;51.176;-115.568;2023-08-06T10:43:36;14.30;;;8.40;;
69596;SDS011;70000;51.176;-115.568;2023-08-06T10:46:11;14.10;;;8.90;;
69596;SDS011;70000;51.176;-115.568;2023-08-06T10:48:51;14.80;;;9.40;;
69596;SDS011;70000;51.176;-115.568;2023-08-06T10:51:23;16.00;;;9.40;;
69596;SDS011;70000;51.176;-115.568;2023-08-06T10:53:52;14.00;;;8.60;;
69596;SDS011;70000;51.176;-115.568;2023-08-06T10:56:25;13.90;;;8.70;;
69596;SDS011;70000;51.176;-115.568;2023-08-06T10:59:00;14.50;;;9.00;;
69596;SDS011;70000;51.176;-115.568;2023-08-06T11:01:29;14.60;;;9.80;;
69596;SDS011;70000;51.176;-115.568;2023-08-06T11:04:03;15.10;;;9.40;;
69596;SDS011;70000;51.176;-115.568;2023-08-06T11:06:33;14.80;;;9.20;;
69596;SDS011;70000;51.176;-115.568;2023-08-06T11:09:04;14.60;;;9.80;;
69596;SDS011;70000;51.176;-115.568;2023-08-06T11:11:34;14.90;;;9.70;;
69596;SDS011;70000;51.176;-115.568;2023-08-06T11:14:05;15.80;;;9.50;;
69596;SDS011;70000;51.176;-115.568;2023-08-06T11:16:35;14.50;;;9.10;;
69596;SDS011;70000;51.176;-115.568;2023-08-06T11:19:04;13.60;;;8.50;;
69596;SDS011;70000;51.176;-115.568;2023-08-06T11:21:35;15.30;;;10.00;;
69596;SDS011;70000;51.176;-115.568;2023-08-06T11:24:04;15.20;;;9.40;;
69596;SDS011;70000;51.176;-115.568;2023-08-06T11:26:37;15.00;;;9.90;;
69596;SDS011;70000;51.176;-115.568;2023-08-06T11:29:08;14.80;;;10.30;;
69596;SDS011;70000;51.176;-115.568;2023-08-06T11:31:39;15.90;;;9.80;;
69596;SDS011;70000;51.176;-115.568;2023-08-06T11:34:11;14.50;;;9.70;;
69596;SDS011;70000;51.176;-115.568;2023-08-06T11:36:42;14.60;;;9.90;;
69596;SDS011;70000;51.176;-115.568;2023-08-06T11:39:11;15.60;;;10.80;;
69596;SDS011;70000;51.176;-115.568;2023-08-06T11:41:42;15.90;;;10.80;;
69596;SDS011;70000;51.176;-115.568;2023-08-06T11:44:15;15.60;;;9.70;;
69596;SDS011;70000;51.176;-115.568;2023-08-06T11:46:51;14.90;;;9.40;;
69596;SDS011;70000;51.176;-115.568;2023-08-06T11:49:43;17.70;;;12.00;;
69596;SDS011;70000;51.176;-115.568;2023-08-06T11:52:21;17.50;;;11.10;;
69596;SDS011;70000;51.176;-115.568;2023-08-06T11:55:05;18.20;;;10.40;;
69596;SDS011;70000;51.176;-115.568;2023-08-06T11:57:46;15.00;;;9.70;;
69596;SDS011;70000;51.176;-115.568;2023-08-06T12:00:17;15.60;;;9.90;;
69596;SDS011;70000;51.176;-115.568;2023-08-06T12:02:51;15.60;;;9.40;;
69596;SDS011;70000;51.176;-115.568;2023-08-06T12:05:31;16.30;;;10.10;;
69596;SDS011;70000;51.176;-115.568;2023-08-06T12:08:02;15.90;;;10.20;;
69596;SDS011;70000;51.176;-115.568;2023-08-06T12:10:37;15.90;;;9.70;;
69596;SDS011;70000;51.176;-115.568;2023-08-06T12:13:06;16.00;;;10.20;;
69596;SDS011;70000;51.176;-115.568;2023-08-06T12:15:39;16.00;;;9.60;;
69596;SDS011;70000;51.176;-115.568;2023-08-06T12:18:11;16.50;;;9.90;;
69596;SDS011;70000;51.176;-115.568;2023-08-06T12:20:40;16.50;;;10.30;;
69596;SDS011;70000;51.176;-115.568;2023-08-06T12:23:09;16.50;;;9.50;;
69596;SDS011;70000;51.176;-115.568;2023-08-06T12:25:44;16.10;;;9.70;;
69596;SDS011;70000;51.176;-115.568;2023-08-06T12:28:13;16.30;;;9.80;;
69596;SDS011;70000;51.176;-115.568;2023-08-06T12:30:42;26.70;;;14.50;;
69596;SDS011;70000;51.176;-115.568;2023-08-06T12:33:13;16.90;;;10.50;;
69596;SDS011;70000;51.176;-115.568;2023-08-06T12:35:45;17.30;;;10.40;;
69596;SDS011;70000;51.176;-115.568;2023-08-06T12:38:14;16.40;;;9.60;;
69596;SDS011;70000;51.176;-115.568;2023-08-06T12:40:43;16.20;;;9.90;;
69596;SDS011;70000;51.176;-115.568;2023-08-06T12:43:13;15.50;;;9.60;;
69596;SDS011;70000;51.176;-115.568;2023-08-06T12:45:42;17.30;;;10.40;;
69596;SDS011;70000;51.176;-115.568;2023-08-06T12:48:12;17.30;;;10.70;;
69596;SDS011;70000;51.176;-115.568;2023-08-06T12:50:45;16.20;;;10.00;;
69596;SDS011;70000;51.176;-115.568;2023-08-06T12:53:17;18.70;;;10.70;;
69596;SDS011;70000;51.176;-115.568;2023-08-06T12:55:46;17.50;;;10.40;;
69596;SDS011;70000;51.176;-115.568;2023-08-06T12:58:17;14.80;;;9.70;;
69596;SDS011;70000;51.176;-115.568;2023-08-06T13:00:46;16.70;;;9.40;;
69596;SDS011;70000;51.176;-115.568;2023-08-06T13:03:18;15.40;;;9.90;;
69596;SDS011;70000;51.176;-115.568;2023-08-06T13:05:47;14.70;;;9.40;;
69596;SDS011;70000;51.176;-115.568;2023-08-06T13:08:20;16.80;;;9.60;;
69596;SDS011;70000;51.176;-115.568;2023-08-06T13:10:50;14.40;;;9.90;;
69596;SDS011;70000;51.176;-115.568;2023-08-06T13:13:25;14.80;;;9.60;;
69596;SDS011;70000;51.176;-115.568;2023-08-06T13:15:54;14.80;;;9.40;;
69596;SDS011;70000;51.176;-115.568;2023-08-06T13:18:24;16.70;;;10.20;;
69596;SDS011;70000;51.176;-115.568;2023-08-06T13:20:54;16.20;;;10.30;;
69596;SDS011;70000;51.176;-115.568;2023-08-06T13:23:23;15.10;;;9.70;;
69596;SDS011;70000;51.176;-115.568;2023-08-06T13:25:53;15.90;;;9.20;;
69596;SDS011;70000;51.176;-115.568;2023-08-06T13:28:23;16.30;;;10.00;;
69596;SDS011;70000;51.176;-115.568;2023-08-06T13:30:52;18.20;;;10.60;;
69596;SDS011;70000;51.176;-115.568;2023-08-06T13:33:21;18.40;;;11.20;;
69596;SDS011;70000;51.176;-115.568;2023-08-06T13:35:53;19.00;;;11.60;;
69596;SDS011;70000;51.176;-115.568;2023-08-06T13:38:22;15.80;;;10.00;;
69596;SDS011;70000;51.176;-115.568;2023-08-06T13:40:52;17.60;;;10.90;;
69596;SDS011;70000;51.176;-115.568;2023-08-06T13:43:21;16.80;;;10.50;;
69596;SDS011;70000;51.176;-115.568;2023-08-06T13:45:50;18.60;;;11.50;;
69596;SDS011;70000;51.176;-115.568;2023-08-06T13:48:19;17.10;;;10.60;;
69596;SDS011;70000;51.176;-115.568;2023-08-06T13:50:48;17.80;;;10.90;;
69596;SDS011;70000;51.176;-115.568;2023-08-06T13:53:18;17.40;;;10.60;;
69596;SDS011;70000;51.176;-115.568;2023-08-06T13:55:46;17.60;;;11.10;;
69596;SDS011;70000;51.176;-115.568;2023-08-06T13:58:15;18.50;;;10.20;;
69596;SDS011;70000;51.176;-115.568;2023-08-06T14:00:45;16.30;;;10.10;;
69596;SDS011;70000;51.176;-115.568;2023-08-06T14:03:14;16.70;;;11.00;;
69596;SDS011;70000;51.176;-115.568;2023-08-06T14:05:44;17.50;;;11.20;;
69596;SDS011;70000;51.176;-115.568;2023-08-06T14:08:13;17.40;;;11.00;;
69596;SDS011;70000;51.176;-115.568;2023-08-06T14:10:42;16.60;;;10.70;;
69596;SDS011;70000;51.176;-115.568;2023-08-06T14:13:11;16.70;;;10.60;;
69596;SDS011;70000;51.176;-115.568;2023-08-06T14:15:40;17.30;;;10.60;;
69596;SDS011;70000;51.176;-115.568;2023-08-06T14:18:10;16.50;;;10.60;;
69596;SDS011;70000;51.176;-115.568;2023-08-06T14:20:40;17.70;;;11.10;;
69596;SDS011;70000;51.176;-115.568;2023-08-06T14:23:11;17.00;;;11.20;;
69596;SDS011;70000;51.176;-115.568;2023-08-06T14:25:40;15.60;;;10.70;;
69596;SDS011;70000;51.176;-115.568;2023-08-06T14:28:12;18.30;;;11.10;;
69596;SDS011;70000;51.176;-115.568;2023-08-06T14:30:41;15.90;;;10.30;;
69596;SDS011;70000;51.176;-115.568;2023-08-06T14:33:13;17.10;;;10.90;;
69596;SDS011;70000;51.176;-115.568;2023-08-06T14:35:54;18.80;;;11.80;;
69596;SDS011;70000;51.176;-115.568;2023-08-06T14:38:23;17.20;;;11.10;;
69596;SDS011;70000;51.176;-115.568;2023-08-06T14:40:52;17.50;;;10.90;;
69596;SDS011;70000;51.176;-115.568;2023-08-06T14:43:22;17.50;;;11.80;;
69596;SDS011;70000;51.176;-115.568;2023-08-06T14:45:51;17.30;;;11.70;;
69596;SDS011;70000;51.176;-115.568;2023-08-06T14:48:20;16.30;;;11.20;;
69596;SDS011;70000;51.176;-115.568;2023-08-06T14:50:49;17.00;;;10.60;;
69596;SDS011;70000;51.176;-115.568;2023-08-06T14:53:18;16.30;;;11.20;;
69596;SDS011;70000;51.176;-115.568;2023-08-06T14:55:48;18.20;;;12.10;;
69596;SDS011;70000;51.176;-115.568;2023-08-06T14:58:17;17.50;;;11.20;;
69596;SDS011;70000;51.176;-115.568;2023-08-06T15:00:46;17.40;;;12.20;;
69596;SDS011;70000;51.176;-115.568;2023-08-06T15:03:17;17.90;;;11.90;;